Airfield :
LOGIN :

Register | Disclaimer

   EN    FR    IT 

 










Legend :    VFR   Marginal VFR   IFR   Intensive IFR   Very Intensive IFR
Visi :
Ceiling :
>= 8 km
>= 3000ft
5 to 8 km
1000 to 3000 ft
1500m to 5 km
500 to 1000 ft
800 to 1500m
200 to 500 ft
< 800m
< 200 ft
Symbols :   Thunderstorms  Fog  Heavy snow  Heavy precipitations  Wind > 20 kt
SIGMETs :     Misc.  Thunderstorms  Icing  Turbulence  Mountain Waves  Volcanic Ashes






- Airport Elevation : 257 ft
- IATA code : MAN


EGCC - Manchester

CURRENT METAR :
  • 170750Z VRB01KT 1200 0600SE R23R/0400 BCFG BR FEW001 SCT020 BKN030 05/04 Q1010

EXPIRED METARs :
  • 170720Z 12001KT 1200 0800NE R23R/0500 PRFG BR FEW002 SCT032 04/04 Q1010 NOSIG
  • 170650Z VRB01KT 1500 0900SW R23R/0700 BCFG BR FEW010 05/04 Q1010 NOSIG
  • 170620Z 00000KT 1200 0400S R23R/0450 PRFG BR FEW015 05/05 Q1009
  • 170550Z VRB02KT 0500 R23R/0350 FG VV/// 05/04 Q1009 TEMPO 300
  • 170520Z 24002KT 2500 0600SW R23R/0500 BCFG SCT003 05/05 Q1009 NOSIG

TAF AMD TAF EGCC
Valid from the 17 at 06:00 until the 18 at 12:00 UTC


170558Z 1706/1812 19004KT 0300 FG VV///
BECMG 1706/1709 9999 NSW BKN020
PROB30
TEMPO 1706/1709 BKN010
TEMPO 1709/1718 6000 -RA FEW003 BKN010
PROB30
TEMPO 1709/1712 2000 RADZ BR BKN003
BECMG 1710/1713 35010KT
ATIS : +44 161 499 2324



MET'MAP, your aeronautical weather chart ! - Copyright ORBIFLY December 2007 - Disclaimer

ORBIFLY MET'MAP TEAM :

Programming & Development : Alexandra Zaïnal
Concept & Development : Baudouin d'Aumeries
Co-Development & Prog : Marc-Olivier Méhu
Technical & hardware support : Manuel Goepfert

Contact : metmap@orbifly.com




SOURCES & CREDITS :

   NOAA